Página principal
METAR-TAF:

METAR-TAF

Aeroportos :

Ouagadougou, Burkina Faso

latitude: 12-21N, longitude: 001-31W, altura: 316 m

Observação actual do tempo

O boletim foi feito há 1 hora e 36 minutos, às 22:00 UTC
Vento 2 kt de su-sudoeste
Temperatura 25°C
Humidade 57%
Pressão 1015 hPa
Visibilidade: 8000 m

METAR: DFFD 192200Z 21002KT 8000 NSC 25/16 Q1015 NOSIG

Hora: 23:36 (23:36 UTC)

Previsão

O boletim foi feito há 6 horas e 36 minutos, às 17:00 UTC
Previsão válida de 19 às 18 UTC a 20 às 24 UTC
Vento 10 kt com direcção variável
Visibilidade: 8000 m
Temporariamente
de 19 às 18 UTC a 19 às 24 UTC
Poucas nuvensa uma altura de 2600 ft
Poucas nuvensa uma altura de 3600 ft, Cumulonimbus.
trovoada
Temporariamente
de 20 às 05 UTC a 20 às 10 UTC
Visibilidade: 3500 m
bruma

TAF: DFFD 191700Z 1918/2024 VRB10KT 8000 NSC TEMPO 1918/1924 TS FEW026 FEW036CB TEMPO 2005/2010 3500 HZ

Observações e previsões do tempo de mais de 4000 aeroportos (mensagens METAR e TAF).

As estações disponíveis são os pontos amarelos e vermelhos sobre o mapa.

Mova o rato sobre o mapa para ver o nome da estação.

Depois clique no ponto para visualizar as observações e previsões meteorológicas.

Para alterar o mapa : clique nos botões verdes com uma cruz preta para aumentar o zoom; no botão verde com uma pitada de zoom; ou nas setas verdes para mapas adjacentes.


METAR-TAF: